Time;durP1;ratioP1;P1;durP2;ratioP2;P2;SDS_P1;SDS_P2;PMS_P1;PMS_P2;Temp;Humidity;BMP_temperature;BMP_pressure;BME280_temperature;BME280_humidity;BME280_pressure;Samples;Min_cycle;Max_cycle;Signal;HPM_P1;HPM_P2
2021/12/19 00:04:21;;;;;;;51.57;27.53;;;1.60;99.90;;;;;;5051937;28;20175;-77
2021/12/19 00:09:31;;;;;;;49.43;25.67;;;1.60;99.90;;;;;;5051149;28;20236;-77
2021/12/19 00:11:57;;;;;;;50.97;27.80;;;1.50;99.90;;;;;;5051429;28;20679;-76
2021/12/19 00:14:23;;;;;;;51.83;26.50;;;1.60;99.90;;;;;;5051472;28;20174;-75
2021/12/19 00:16:54;;;;;;;56.57;28.30;;;1.80;99.90;;;;;;5051253;28;20175;-76
2021/12/19 00:19:19;;;;;;;51.43;26.43;;;1.80;99.90;;;;;;5050976;28;20180;-76
2021/12/19 00:21:46;;;;;;;53.87;27.87;;;1.70;99.90;;;;;;5054326;28;20221;-76
2021/12/19 00:24:11;;;;;;;53.47;27.13;;;1.50;99.90;;;;;;5055535;28;20167;-76
2021/12/19 00:26:37;;;;;;;52.80;27.10;;;1.50;99.90;;;;;;5055569;28;20186;-75
2021/12/19 00:29:04;;;;;;;52.77;27.47;;;1.50;99.90;;;;;;5055488;28;20171;-76
2021/12/19 00:31:30;;;;;;;54.13;29.60;;;1.50;99.90;;;;;;5054914;28;20205;-75
2021/12/19 00:33:56;;;;;;;51.10;29.27;;;1.60;99.90;;;;;;5055225;28;20167;-76
2021/12/19 00:36:22;;;;;;;57.40;31.80;;;1.70;99.90;;;;;;5055285;28;20182;-76
2021/12/19 00:38:48;;;;;;;57.23;31.27;;;1.60;99.90;;;;;;5055177;28;20593;-76
2021/12/19 00:41:14;;;;;;;58.83;30.90;;;1.60;99.90;;;;;;5054333;28;20225;-76
2021/12/19 00:46:08;;;;;;;61.23;32.80;;;1.60;99.90;;;;;;5059590;28;20171;-75
2021/12/19 00:48:48;;;;;;;58.80;30.53;;;1.70;99.90;;;;;;5101608;22;20189;-77
2021/12/19 00:51:17;;;;;;;55.77;29.43;;;1.60;99.90;;;;;;5110024;28;20204;-77
2021/12/19 00:53:45;;;;;;;55.47;30.10;;;1.60;99.90;;;;;;5115788;28;20204;-78
2021/12/19 00:56:12;;;;;;;57.40;30.57;;;1.60;99.90;;;;;;5116078;28;20680;-77
2021/12/19 00:58:38;;;;;;;55.27;30.77;;;1.60;99.90;;;;;;5115924;28;20185;-78
2021/12/19 01:01:06;;;;;;;63.40;32.47;;;1.70;99.90;;;;;;5115438;28;20580;-78
2021/12/19 01:03:32;;;;;;;59.67;32.87;;;1.70;99.90;;;;;;5115993;28;20184;-76
2021/12/19 01:05:58;;;;;;;56.50;30.90;;;1.70;99.90;;;;;;5115765;28;20177;-75
2021/12/19 01:08:24;;;;;;;61.27;31.73;;;1.60;99.90;;;;;;5115801;28;20177;-75
2021/12/19 01:10:51;;;;;;;56.53;30.47;;;1.70;99.90;;;;;;5114864;28;20253;-76
2021/12/19 01:13:18;;;;;;;57.67;31.97;;;1.80;99.90;;;;;;5115427;28;20173;-76
2021/12/19 01:15:46;;;;;;;60.13;32.60;;;1.70;99.90;;;;;;5115038;28;20645;-78
2021/12/19 01:18:11;;;;;;;61.67;33.63;;;1.60;99.90;;;;;;5115453;28;20697;-77
2021/12/19 01:20:40;;;;;;;62.30;33.03;;;1.60;99.90;;;;;;5114852;28;22163;-76
2021/12/19 01:23:06;;;;;;;63.73;34.67;;;1.60;99.90;;;;;;5115315;28;20181;-76
2021/12/19 01:25:32;;;;;;;61.73;31.67;;;1.70;99.90;;;;;;5115283;28;20177;-75
2021/12/19 01:27:58;;;;;;;62.60;32.43;;;1.60;99.90;;;;;;5115060;28;20637;-76
2021/12/19 01:30:24;;;;;;;58.70;30.17;;;1.50;99.90;;;;;;5114350;28;20223;-77
2021/12/19 01:32:50;;;;;;;63.50;33.30;;;1.50;99.90;;;;;;5115186;28;20174;-77
2021/12/19 01:35:18;;;;;;;59.87;32.60;;;1.40;99.90;;;;;;5115176;28;20165;-78
2021/12/19 01:37:44;;;;;;;63.57;34.37;;;1.60;99.90;;;;;;5114766;28;20184;-78
2021/12/19 01:40:12;;;;;;;67.83;34.17;;;1.50;99.90;;;;;;5114317;28;20189;-77
2021/12/19 01:42:40;;;;;;;64.70;32.27;;;1.60;99.90;;;;;;5115642;28;20258;-76
2021/12/19 01:45:10;;;;;;;68.53;33.00;;;1.70;99.90;;;;;;5115050;28;20208;-77
2021/12/19 01:47:36;;;;;;;67.37;32.70;;;1.70;99.90;;;;;;5114867;28;20641;-76
2021/12/19 01:50:03;;;;;;;68.13;33.43;;;1.70;99.90;;;;;;5114585;28;20253;-76
2021/12/19 01:52:30;;;;;;;64.10;31.80;;;1.40;99.90;;;;;;5114752;28;20204;-78
2021/12/19 01:54:56;;;;;;;58.90;29.77;;;1.60;99.90;;;;;;5114646;28;20169;-78
2021/12/19 01:57:24;;;;;;;58.60;27.77;;;1.60;99.90;;;;;;5114601;28;20241;-77
2021/12/19 01:59:51;;;;;;;57.47;27.37;;;1.50;99.90;;;;;;5114311;28;20180;-77
2021/12/19 02:02:16;;;;;;;56.97;27.67;;;1.50;99.90;;;;;;5114886;28;20212;-77
2021/12/19 02:04:43;;;;;;;53.73;27.63;;;1.30;99.90;;;;;;5114754;28;20180;-77
2021/12/19 02:07:10;;;;;;;58.13;27.77;;;1.40;99.90;;;;;;5114545;28;20169;-76
2021/12/19 02:09:36;;;;;;;53.53;26.77;;;1.40;99.90;;;;;;5114129;28;20512;-78
2021/12/19 02:12:03;;;;;;;56.30;27.60;;;1.30;99.90;;;;;;5113960;28;20177;-77
2021/12/19 02:14:29;;;;;;;54.73;26.77;;;1.60;99.90;;;;;;5114562;28;20256;-78
2021/12/19 02:16:55;;;;;;;60.17;29.17;;;1.40;99.90;;;;;;5114227;28;20181;-78
2021/12/19 02:19:22;;;;;;;58.20;28.30;;;1.60;99.90;;;;;;5113822;28;20173;-79
2021/12/19 02:21:49;;;;;;;54.53;28.10;;;1.60;99.90;;;;;;5114198;28;20216;-78
2021/12/19 02:24:15;;;;;;;54.67;28.97;;;1.70;99.90;;;;;;5114195;28;20173;-79
2021/12/19 02:26:43;;;;;;;55.00;27.33;;;1.60;99.90;;;;;;5113902;28;20210;-77
2021/12/19 02:29:10;;;;;;;53.40;26.47;;;1.70;99.90;;;;;;5114047;28;20177;-78
2021/12/19 02:31:36;;;;;;;52.93;27.97;;;1.70;99.90;;;;;;5114065;28;20208;-80
2021/12/19 02:36:57;;;;;;;58.87;27.07;;;1.90;99.90;;;;;;5114373;28;20225;-78
2021/12/19 02:50:19;;;;;;;57.97;27.87;;;1.50;99.90;;;;;;5113572;28;20203;-81
2021/12/19 02:52:45;;;;;;;55.50;27.47;;;1.60;99.90;;;;;;5113679;28;20227;-76
2021/12/19 02:55:14;;;;;;;54.63;26.23;;;1.50;99.90;;;;;;5113675;28;20629;-77
2021/12/19 02:57:40;;;;;;;57.27;27.17;;;1.50;99.90;;;;;;5113453;28;20237;-77
2021/12/19 03:00:16;;;;;;;58.47;24.23;;;1.60;99.90;;;;;;5112894;28;20193;-77
2021/12/19 03:02:41;;;;;;;55.60;25.53;;;1.50;99.90;;;;;;5113565;28;20270;-78
2021/12/19 03:05:08;;;;;;;60.40;27.77;;;1.50;99.90;;;;;;5113543;28;20177;-77
2021/12/19 03:07:39;;;;;;;56.03;25.63;;;1.50;99.90;;;;;;5113309;28;20177;-78
2021/12/19 03:13:01;;;;;;;50.37;23.27;;;1.40;99.90;;;;;;5112879;28;20178;-78
2021/12/19 03:18:13;;;;;;;51.43;23.67;;;1.40;99.90;;;;;;5113383;28;20730;-78
2021/12/19 03:20:41;;;;;;;51.77;23.67;;;1.50;99.90;;;;;;5112338;28;20316;-77
2021/12/19 03:23:10;;;;;;;53.53;24.23;;;1.50;99.90;;;;;;5113094;28;20173;-77
2021/12/19 03:25:36;;;;;;;48.50;22.40;;;1.40;99.90;;;;;;5112987;28;20190;-77
2021/12/19 03:28:04;;;;;;;54.23;24.13;;;1.40;99.90;;;;;;5112973;28;20181;-80
2021/12/19 03:30:31;;;;;;;49.23;23.37;;;1.50;99.90;;;;;;5112433;28;20185;-80
2021/12/19 03:32:57;;;;;;;48.40;22.73;;;1.50;99.90;;;;;;5112668;28;20169;-77
2021/12/19 03:35:24;;;;;;;53.80;23.47;;;1.50;99.90;;;;;;5112926;28;20185;-80
2021/12/19 03:37:51;;;;;;;50.20;23.50;;;1.40;99.90;;;;;;5112936;28;20177;-78
2021/12/19 03:40:35;;;;;;;53.03;24.37;;;1.40;99.90;;;;;;5112218;28;20197;-79
2021/12/19 03:43:03;;;;;;;50.33;22.60;;;1.40;99.90;;;;;;5112803;28;20185;-77
2021/12/19 03:45:29;;;;;;;53.53;23.77;;;1.50;99.90;;;;;;5112812;28;20173;-78
2021/12/19 03:47:55;;;;;;;50.23;23.33;;;1.40;99.90;;;;;;5112495;28;20641;-77
2021/12/19 03:50:22;;;;;;;58.07;24.60;;;1.50;99.90;;;;;;5112008;28;20208;-78
2021/12/19 03:52:50;;;;;;;50.83;22.53;;;1.40;99.90;;;;;;5112673;28;20247;-78
2021/12/19 03:55:16;;;;;;;54.93;23.53;;;1.40;99.90;;;;;;5111759;28;20170;-77
2021/12/19 03:57:41;;;;;;;50.00;21.77;;;1.30;99.90;;;;;;5112477;28;20226;-77
2021/12/19 04:00:12;;;;;;;52.60;23.03;;;1.40;99.90;;;;;;5112390;28;20196;-78
2021/12/19 04:02:38;;;;;;;53.00;22.57;;;1.30;99.90;;;;;;5112223;28;20205;-77
2021/12/19 04:05:04;;;;;;;51.13;21.67;;;1.20;99.90;;;;;;5112531;28;20741;-77
2021/12/19 04:07:30;;;;;;;49.77;22.10;;;1.20;99.90;;;;;;5112377;28;20198;-77
2021/12/19 04:09:55;;;;;;;51.60;22.80;;;1.20;99.90;;;;;;5111723;28;20185;-79
2021/12/19 04:12:27;;;;;;;49.17;21.97;;;1.20;99.90;;;;;;5112298;28;20173;-76
2021/12/19 04:14:53;;;;;;;49.80;21.53;;;1.20;99.90;;;;;;5112279;28;20169;-77
2021/12/19 04:17:19;;;;;;;44.83;21.07;;;1.20;99.90;;;;;;5112454;28;20185;-76
2021/12/19 04:19:44;;;;;;;46.37;20.60;;;1.20;99.90;;;;;;5111966;28;20522;-78
2021/12/19 04:22:10;;;;;;;47.43;21.13;;;1.30;99.90;;;;;;5112238;28;20213;-80
2021/12/19 04:24:35;;;;;;;45.63;20.60;;;1.20;99.90;;;;;;5112783;28;20260;-76
2021/12/19 04:27:01;;;;;;;46.37;21.23;;;1.40;99.90;;;;;;5112763;28;20184;-76
2021/12/19 04:29:27;;;;;;;51.37;21.53;;;1.30;99.90;;;;;;5111670;28;20222;-78
2021/12/19 04:31:54;;;;;;;52.20;21.50;;;1.10;99.90;;;;;;5112722;28;20204;-77
2021/12/19 04:34:21;;;;;;;48.47;20.60;;;1.10;99.90;;;;;;5112277;28;20522;-77
2021/12/19 04:36:52;;;;;;;50.33;21.53;;;1.10;99.90;;;;;;5111846;28;20586;-77
2021/12/19 04:39:29;;;;;;;47.67;20.60;;;1.10;99.90;;;;;;5111450;28;20173;-80
2021/12/19 04:50:57;;;;;;;53.97;21.30;;;1.00;99.90;;;;;;5112114;28;20172;-77
2021/12/19 04:51:00;;;;;;;48.63;19.47;;;1.10;99.90;;;;;;5111798;28;20212;-77
2021/12/19 05:01:30;;;;;;;47.03;18.87;;;0.80;99.90;;;;;;5065707;28;20228;-76
2021/12/19 05:14:37;;;;;;;45.57;18.37;;;1.10;99.90;;;;;;5115307;28;20185;-76
2021/12/19 05:17:08;;;;;;;45.00;18.73;;;1.10;99.90;;;;;;5115473;28;20195;-77
2021/12/19 05:19:52;;;;;;;43.23;17.63;;;1.10;99.90;;;;;;5114649;28;20602;-77
2021/12/19 05:22:20;;;;;;;42.60;17.67;;;1.10;99.90;;;;;;5115036;28;20589;-77
2021/12/19 05:25:00;;;;;;;42.50;17.70;;;1.10;99.90;;;;;;5115125;28;20698;-79
2021/12/19 05:27:26;;;;;;;43.63;18.80;;;1.00;99.90;;;;;;5115142;28;20637;-77
2021/12/19 05:29:52;;;;;;;43.23;18.87;;;1.00;99.90;;;;;;5114335;28;20208;-79
2021/12/19 05:32:17;;;;;;;39.33;17.37;;;1.00;99.90;;;;;;5115280;28;20659;-77
2021/12/19 05:34:43;;;;;;;40.97;17.90;;;1.00;99.90;;;;;;5096667;28;20169;-79
2021/12/19 05:45:21;;;;;;;35.00;14.97;;;1.00;99.90;;;;;;5114917;28;20225;-79
2021/12/19 05:47:49;;;;;;;37.53;17.57;;;0.90;99.90;;;;;;5115156;28;20267;-76
2021/12/19 05:50:18;;;;;;;39.87;19.27;;;0.90;99.90;;;;;;5115178;28;20212;-76
2021/12/19 05:52:45;;;;;;;104.03;49.87;;;0.90;99.90;;;;;;5116468;28;20185;-77
2021/12/19 05:55:10;;;;;;;50.33;24.87;;;0.90;99.90;;;;;;5114724;28;20526;-77
2021/12/19 05:57:36;;;;;;;45.03;19.13;;;0.90;99.90;;;;;;5114699;28;20184;-77
2021/12/19 06:00:07;;;;;;;45.07;19.90;;;0.80;99.90;;;;;;5114075;28;20200;-78
2021/12/19 06:02:32;;;;;;;38.27;18.17;;;0.90;99.90;;;;;;5114450;28;20217;-78
2021/12/19 06:04:58;;;;;;;36.63;18.17;;;0.90;99.90;;;;;;5114412;28;20655;-77
2021/12/19 06:07:23;;;;;;;37.73;18.43;;;0.80;99.90;;;;;;5114298;28;20173;-76
2021/12/19 06:09:49;;;;;;;43.30;19.77;;;0.70;99.90;;;;;;5113948;28;20679;-77
2021/12/19 06:12:14;;;;;;;40.23;18.97;;;0.80;99.90;;;;;;5114365;28;20672;-77
2021/12/19 06:14:40;;;;;;;43.33;19.43;;;0.80;99.90;;;;;;5114488;28;20194;-77
2021/12/19 06:17:06;;;;;;;37.93;17.00;;;0.80;99.90;;;;;;5114105;28;20546;-78
2021/12/19 06:19:36;;;;;;;41.17;18.47;;;0.80;99.90;;;;;;5112837;28;20180;-77
2021/12/19 06:22:06;;;;;;;39.23;18.73;;;0.80;99.90;;;;;;5113974;28;20244;-77
2021/12/19 06:24:33;;;;;;;82.40;44.70;;;0.80;99.90;;;;;;5114431;28;20170;-77
2021/12/19 06:26:59;;;;;;;130.13;70.43;;;0.70;99.90;;;;;;5114076;28;20196;-79
2021/12/19 06:29:30;;;;;;;49.63;25.10;;;0.80;99.90;;;;;;5113545;28;20183;-77
2021/12/19 06:31:56;;;;;;;40.20;20.13;;;0.80;99.90;;;;;;5113984;28;20189;-78
2021/12/19 06:34:22;;;;;;;34.13;18.63;;;0.90;99.90;;;;;;5114050;28;20173;-78
2021/12/19 06:36:48;;;;;;;36.40;18.27;;;0.90;99.90;;;;;;5113802;28;20535;-78
2021/12/19 06:39:13;;;;;;;30.37;14.90;;;0.80;99.90;;;;;;5113659;28;20173;-80
2021/12/19 06:41:39;;;;;;;34.03;15.50;;;0.80;99.90;;;;;;5113669;28;20244;-77
2021/12/19 06:44:06;;;;;;;33.80;14.90;;;0.80;99.90;;;;;;5113798;28;20173;-78
2021/12/19 06:46:32;;;;;;;32.37;15.10;;;0.90;99.90;;;;;;5113927;28;20196;-77
2021/12/19 06:48:58;;;;;;;28.63;13.90;;;0.80;99.90;;;;;;5127066;22;20176;-83
2021/12/19 06:51:23;;;;;;;32.10;16.73;;;0.80;99.90;;;;;;5078788;28;20221;-85
2021/12/19 06:53:49;;;;;;;37.03;17.27;;;0.80;99.90;;;;;;5079431;28;20170;-84
2021/12/19 06:56:15;;;;;;;35.77;15.53;;;0.80;99.90;;;;;;5059478;28;20178;-84
2021/12/19 06:58:41;;;;;;;30.83;15.60;;;0.80;99.90;;;;;;5077628;28;20519;-87
2021/12/19 07:01:06;;;;;;;33.73;15.57;;;0.90;99.90;;;;;;5077175;28;20210;-83
2021/12/19 07:03:32;;;;;;;37.13;15.17;;;0.70;99.90;;;;;;5078810;28;20166;-85
2021/12/19 07:05:58;;;;;;;32.00;15.20;;;0.80;99.90;;;;;;5079125;28;20234;-83
2021/12/19 07:08:24;;;;;;;30.37;13.87;;;0.80;99.90;;;;;;5079514;28;20190;-82
2021/12/19 07:10:50;;;;;;;27.00;13.97;;;0.70;99.90;;;;;;5079025;28;20248;-86
2021/12/19 07:13:20;;;;;;;30.93;14.20;;;0.80;99.90;;;;;;5078694;28;20182;-83
2021/12/19 07:15:47;;;;;;;30.90;14.70;;;0.70;99.90;;;;;;5077854;28;20257;-82
2021/12/19 07:18:12;;;;;;;30.87;13.90;;;1.50;99.90;;;;;;5079530;28;20178;-84
2021/12/19 07:20:42;;;;;;;30.93;14.53;;;0.70;99.90;;;;;;5077314;28;20692;-82
2021/12/19 07:23:12;;;;;;;27.47;13.53;;;0.80;99.90;;;;;;5088382;28;20182;-82
2021/12/19 07:25:38;;;;;;;32.33;14.50;;;0.80;99.90;;;;;;5090708;28;20181;-82
2021/12/19 07:28:04;;;;;;;31.23;14.97;;;0.80;99.90;;;;;;5088657;28;20265;-84
2021/12/19 07:30:30;;;;;;;32.13;16.27;;;0.80;99.90;;;;;;5080503;28;20240;-82
2021/12/19 07:32:57;;;;;;;31.57;15.53;;;0.70;99.90;;;;;;5080509;28;20200;-80
2021/12/19 07:35:23;;;;;;;25.93;13.30;;;0.70;99.90;;;;;;5064220;28;20243;-79
2021/12/19 07:37:51;;;;;;;30.33;12.80;;;0.90;99.90;;;;;;5076550;28;20223;-81
2021/12/19 07:40:19;;;;;;;25.80;13.00;;;1.10;99.90;;;;;;5074146;28;20260;-82
2021/12/19 07:42:45;;;;;;;23.90;11.17;;;1.10;99.90;;;;;;5075638;28;20222;-80
2021/12/19 07:45:11;;;;;;;22.50;12.47;;;1.30;99.90;;;;;;5076834;28;20174;-82
2021/12/19 07:47:38;;;;;;;20.13;11.57;;;1.00;99.90;;;;;;5083504;28;20177;-81
2021/12/19 07:50:08;;;;;;;22.93;12.67;;;0.90;99.90;;;;;;5085935;28;20256;-79
2021/12/19 07:52:34;;;;;;;21.07;11.67;;;1.10;99.90;;;;;;5082752;28;20587;-81
2021/12/19 07:55:01;;;;;;;22.33;11.83;;;1.00;99.90;;;;;;5085770;28;20247;-80
2021/12/19 07:57:27;;;;;;;22.73;12.57;;;1.10;99.90;;;;;;5091515;28;20196;-80
2021/12/19 07:59:52;;;;;;;20.00;11.13;;;1.30;99.90;;;;;;5095322;28;20564;-81
2021/12/19 08:02:18;;;;;;;18.13;10.90;;;1.30;99.90;;;;;;5095872;28;20300;-81
2021/12/19 08:04:43;;;;;;;23.07;11.87;;;1.10;99.90;;;;;;5096107;28;20186;-80
2021/12/19 08:07:12;;;;;;;22.03;11.63;;;1.20;99.90;;;;;;5088868;28;20547;-82
2021/12/19 08:09:46;;;;;;;19.00;10.73;;;1.10;99.90;;;;;;5083056;28;20193;-81
2021/12/19 08:12:12;;;;;;;20.37;10.90;;;1.20;99.90;;;;;;5083865;28;20594;-80
2021/12/19 08:14:37;;;;;;;21.53;11.17;;;1.10;99.90;;;;;;5085780;28;20166;-81
2021/12/19 08:17:03;;;;;;;19.07;9.93;;;1.20;99.90;;;;;;5086993;28;20265;-80
2021/12/19 08:19:29;;;;;;;18.30;9.70;;;1.20;99.90;;;;;;5088319;28;20502;-80
2021/12/19 08:21:55;;;;;;;20.10;9.60;;;1.20;99.90;;;;;;5078306;28;20215;-81
2021/12/19 08:24:20;;;;;;;18.20;9.53;;;1.20;99.90;;;;;;5094508;28;20185;-80
2021/12/19 08:26:46;;;;;;;15.40;9.20;;;1.20;99.90;;;;;;5094715;28;20177;-81
2021/12/19 08:29:12;;;;;;;14.93;8.70;;;1.20;99.90;;;;;;5096876;28;20668;-82
2021/12/19 08:31:40;;;;;;;17.47;9.23;;;1.00;99.90;;;;;;5097796;28;20197;-80
2021/12/19 08:34:06;;;;;;;13.33;8.60;;;0.90;99.90;;;;;;5095321;28;20546;-80
2021/12/19 08:36:31;;;;;;;16.40;8.77;;;1.00;99.90;;;;;;5094610;28;20173;-81
2021/12/19 08:38:58;;;;;;;15.77;8.67;;;1.10;99.90;;;;;;5094530;28;20181;-79
2021/12/19 08:41:24;;;;;;;13.87;7.53;;;1.10;99.90;;;;;;5094661;28;20553;-81
2021/12/19 08:43:50;;;;;;;18.57;7.37;;;1.30;99.90;;;;;;5093457;28;20182;-82
2021/12/19 08:46:15;;;;;;;15.50;8.37;;;1.20;99.90;;;;;;5080660;28;20232;-80
2021/12/19 08:48:41;;;;;;;14.17;8.13;;;1.30;99.90;;;;;;5078807;28;20666;-83
2021/12/19 08:51:07;;;;;;;16.87;8.60;;;1.20;99.90;;;;;;5078872;28;20232;-81
2021/12/19 08:53:33;;;;;;;17.03;8.93;;;1.30;99.90;;;;;;5078313;28;20221;-80
2021/12/19 08:55:59;;;;;;;15.97;9.07;;;1.30;99.90;;;;;;5077259;28;20541;-80
2021/12/19 08:58:28;;;;;;;18.30;10.30;;;1.30;99.90;;;;;;5075605;28;20171;-80
2021/12/19 09:00:57;;;;;;;17.43;9.20;;;1.20;99.90;;;;;;5075815;28;20190;-80
2021/12/19 09:03:23;;;;;;;16.33;8.83;;;1.20;99.90;;;;;;5076711;28;20197;-80
2021/12/19 09:05:49;;;;;;;13.83;8.23;;;1.20;99.90;;;;;;5077139;28;20175;-79
2021/12/19 09:08:15;;;;;;;15.33;9.20;;;1.10;99.90;;;;;;5077771;28;20189;-79
2021/12/19 09:10:40;;;;;;;15.70;8.53;;;1.10;99.90;;;;;;5079283;28;20183;-81
2021/12/19 09:13:06;;;;;;;15.00;8.77;;;1.20;99.90;;;;;;5082380;28;20202;-82
2021/12/19 09:15:31;;;;;;;16.13;9.00;;;1.30;99.90;;;;;;5082502;28;20182;-81
2021/12/19 09:17:57;;;;;;;17.77;8.97;;;1.20;99.90;;;;;;5085978;28;20187;-83
2021/12/19 09:20:23;;;;;;;17.80;10.20;;;1.20;99.90;;;;;;5093941;28;20417;-80
2021/12/19 09:22:48;;;;;;;16.30;9.07;;;1.10;99.90;;;;;;5102940;28;20213;-80
2021/12/19 09:25:14;;;;;;;15.00;8.27;;;1.00;99.90;;;;;;5103791;28;20178;-80
2021/12/19 09:27:39;;;;;;;15.57;8.67;;;1.00;99.90;;;;;;5102777;28;20624;-79
2021/12/19 09:30:05;;;;;;;15.30;7.70;;;1.10;99.90;;;;;;5102979;28;20194;-80
2021/12/19 09:32:31;;;;;;;13.00;7.17;;;1.00;99.90;;;;;;5103139;28;20237;-80
2021/12/19 09:34:56;;;;;;;14.33;7.90;;;0.90;99.90;;;;;;5102910;28;20201;-80
2021/12/19 09:37:22;;;;;;;13.77;7.47;;;1.00;99.90;;;;;;5100860;28;20590;-80
2021/12/19 09:39:50;;;;;;;14.03;7.47;;;1.10;99.90;;;;;;5101750;28;20253;-80
2021/12/19 09:42:19;;;;;;;13.47;8.53;;;1.30;99.90;;;;;;5099195;28;20213;-80
2021/12/19 09:44:45;;;;;;;13.10;7.30;;;1.50;99.90;;;;;;5099332;28;20256;-81
2021/12/19 09:47:10;;;;;;;15.43;7.77;;;1.60;99.90;;;;;;5100636;28;20264;-79
2021/12/19 09:49:36;;;;;;;13.27;7.03;;;1.50;99.90;;;;;;5101020;28;20193;-80
2021/12/19 09:52:08;;;;;;;11.83;7.13;;;1.50;99.90;;;;;;5105073;28;20193;-79
2021/12/19 09:54:35;;;;;;;16.03;8.90;;;1.30;99.90;;;;;;5107099;28;20180;-82
2021/12/19 09:57:01;;;;;;;15.67;7.77;;;1.10;99.90;;;;;;5109417;28;20202;-81
2021/12/19 09:59:26;;;;;;;12.33;7.30;;;1.20;99.90;;;;;;5104838;28;20181;-80
2021/12/19 10:01:53;;;;;;;13.57;8.20;;;1.40;99.90;;;;;;5101695;28;20224;-81
2021/12/19 10:04:34;;;;;;;13.03;6.53;;;1.30;99.90;;;;;;5100170;28;20585;-80
2021/12/19 10:07:10;;;;;;;12.20;6.93;;;1.20;99.90;;;;;;5096529;28;20257;-79
2021/12/19 10:09:38;;;;;;;12.70;7.33;;;1.20;99.90;;;;;;5095456;28;20174;-78
2021/12/19 10:12:25;;;;;;;12.57;7.27;;;1.30;99.90;;;;;;5097961;28;20201;-78
2021/12/19 10:14:53;;;;;;;11.73;6.60;;;1.20;99.90;;;;;;5096881;28;20184;-77
2021/12/19 10:17:20;;;;;;;11.80;6.53;;;1.20;99.90;;;;;;5097394;28;20209;-80
2021/12/19 10:19:51;;;;;;;12.77;7.27;;;1.40;99.90;;;;;;5096735;28;20178;-79
2021/12/19 10:22:27;;;;;;;14.27;8.13;;;1.40;99.90;;;;;;5096523;28;20210;-79
2021/12/19 10:24:55;;;;;;;13.10;7.17;;;1.40;99.90;;;;;;5096051;28;20173;-79
2021/12/19 10:27:34;;;;;;;11.73;7.20;;;1.30;99.90;;;;;;5095708;28;20181;-78
2021/12/19 10:30:00;;;;;;;12.00;6.87;;;1.50;99.90;;;;;;5095120;28;20193;-79
2021/12/19 10:32:26;;;;;;;13.40;7.13;;;1.40;99.90;;;;;;5095907;28;20177;-78
2021/12/19 10:35:13;;;;;;;12.43;7.37;;;1.70;99.90;;;;;;5096074;28;20181;-80
2021/12/19 10:37:39;;;;;;;12.07;6.90;;;1.80;99.90;;;;;;5096966;28;20181;-77
2021/12/19 10:40:06;;;;;;;13.07;7.30;;;1.70;99.90;;;;;;5095084;28;20198;-78
2021/12/19 10:42:43;;;;;;;10.53;6.37;;;1.60;99.90;;;;;;5095488;28;20205;-78
2021/12/19 10:48:08;;;;;;;14.03;7.90;;;1.80;99.90;;;;;;5097254;28;20173;-80
2021/12/19 10:50:42;;;;;;;11.53;7.07;;;1.80;99.90;;;;;;5095139;28;20209;-79
2021/12/19 10:53:07;;;;;;;11.93;5.93;;;1.80;99.90;;;;;;5096554;28;20174;-79
2021/12/19 10:55:33;;;;;;;11.87;6.70;;;1.60;99.90;;;;;;5095939;28;20188;-81
2021/12/19 10:57:58;;;;;;;11.30;6.40;;;1.70;99.90;;;;;;5101960;28;20177;-79
2021/12/19 11:00:26;;;;;;;8.77;5.53;;;1.80;99.90;;;;;;5106983;28;20194;-80
2021/12/19 11:02:52;;;;;;;13.90;7.60;;;1.60;99.90;;;;;;5105748;28;20229;-83
2021/12/19 11:05:40;;;;;;;14.80;6.83;;;1.70;99.90;;;;;;5103627;28;20180;-82
2021/12/19 11:08:08;;;;;;;8.53;5.50;;;1.80;99.90;;;;;;5104068;28;20234;-80
2021/12/19 11:10:35;;;;;;;7.87;5.73;;;1.80;99.90;;;;;;5106062;28;20473;-81
2021/12/19 11:13:13;;;;;;;7.53;4.87;;;2.00;99.90;;;;;;5105543;28;20178;-78
2021/12/19 11:15:39;;;;;;;6.43;4.60;;;1.90;99.90;;;;;;5103688;28;20207;-81
2021/12/19 11:18:05;;;;;;;7.73;5.83;;;2.00;99.90;;;;;;5109033;28;20600;-79
2021/12/19 11:20:31;;;;;;;6.83;4.83;;;2.00;99.90;;;;;;5086322;28;20198;-80
2021/12/19 11:22:57;;;;;;;8.40;5.30;;;2.00;99.90;;;;;;5084589;28;20547;-80
2021/12/19 11:25:23;;;;;;;8.13;5.70;;;1.90;99.90;;;;;;5087173;28;20182;-80
2021/12/19 11:27:49;;;;;;;8.33;5.33;;;2.00;99.90;;;;;;5086300;28;20238;-78
2021/12/19 11:30:17;;;;;;;9.53;6.60;;;2.00;99.90;;;;;;5082218;28;20491;-79
2021/12/19 11:33:06;;;;;;;9.63;6.47;;;2.00;99.90;;;;;;5086854;28;20182;-78
2021/12/19 11:35:36;;;;;;;9.57;6.33;;;2.10;99.90;;;;;;5070062;28;20197;-81
2021/12/19 11:38:08;;;;;;;9.67;6.50;;;2.10;99.90;;;;;;5087421;28;20174;-80
2021/12/19 11:40:36;;;;;;;8.73;5.93;;;2.00;99.90;;;;;;5085944;28;20225;-79
2021/12/19 11:43:08;;;;;;;10.67;6.10;;;2.10;99.90;;;;;;5086749;28;20214;-79
2021/12/19 11:45:56;;;;;;;10.00;6.37;;;1.90;99.90;;;;;;5078750;28;20623;-79
2021/12/19 11:48:33;;;;;;;10.27;6.60;;;1.80;99.90;;;;;;5079350;28;20180;-80
2021/12/19 11:51:05;;;;;;;10.80;6.70;;;1.80;99.90;;;;;;5082274;28;20210;-81
2021/12/19 11:53:33;;;;;;;10.23;7.43;;;1.90;99.90;;;;;;5078409;28;20186;-80
2021/12/19 11:56:06;;;;;;;7.57;5.33;;;1.90;99.90;;;;;;5076912;28;20178;-80
2021/12/19 11:58:42;;;;;;;9.30;6.57;;;1.90;99.90;;;;;;5074399;28;20197;-80
2021/12/19 12:01:10;;;;;;;12.13;8.70;;;2.00;99.90;;;;;;5074071;28;20210;-80
2021/12/19 12:03:47;;;;;;;12.40;7.97;;;1.90;99.90;;;;;;5077297;28;20174;-78
2021/12/19 12:06:20;;;;;;;9.70;7.30;;;1.90;99.90;;;;;;5086610;28;20188;-77
2021/12/19 12:09:04;;;;;;;11.70;7.87;;;2.00;99.90;;;;;;5070221;28;20171;-80
2021/12/19 12:11:31;;;;;;;12.40;7.17;;;2.00;99.90;;;;;;5087079;28;20191;-80
2021/12/19 12:14:21;;;;;;;18.07;14.53;;;1.80;99.90;;;;;;5087500;28;20190;-83
2021/12/19 12:16:52;;;;;;;14.43;9.23;;;1.70;99.90;;;;;;5073486;28;20178;-80
2021/12/19 12:19:44;;;;;;;16.80;10.53;;;1.70;99.90;;;;;;5069371;28;20163;-80
2021/12/19 12:22:28;;;;;;;15.25;9.07;;;1.70;99.90;;;;;;5071884;28;20417;-81
2021/12/19 12:25:17;;;;;;;15.07;9.33;;;1.70;99.90;;;;;;5074785;28;20178;-80
2021/12/19 12:27:52;;;;;;;14.03;8.70;;;1.60;99.90;;;;;;5081152;28;20239;-81
2021/12/19 12:30:35;;;;;;;14.87;8.60;;;1.60;99.90;;;;;;5077783;28;20228;-79
2021/12/19 12:33:03;;;;;;;14.00;7.70;;;1.80;99.90;;;;;;5078713;28;20175;-81
2021/12/19 12:35:31;;;;;;;13.77;8.00;;;1.70;99.90;;;;;;5072777;28;20189;-79
2021/12/19 12:37:58;;;;;;;13.30;7.70;;;1.70;99.90;;;;;;5073569;28;20179;-76
2021/12/19 12:40:32;;;;;;;12.03;7.00;;;1.60;99.90;;;;;;5070491;28;20705;-77
2021/12/19 12:43:02;;;;;;;15.43;8.13;;;1.60;99.90;;;;;;5093235;28;20282;-80
2021/12/19 12:45:29;;;;;;;14.50;8.43;;;1.70;99.90;;;;;;5093421;28;20181;-80
2021/12/19 12:47:55;;;;;;;14.87;8.73;;;1.60;99.90;;;;;;5092767;28;20193;-79
2021/12/19 12:50:21;;;;;;;15.50;8.33;;;1.50;99.90;;;;;;5109835;22;20710;-76
2021/12/19 12:52:47;;;;;;;14.70;9.17;;;1.40;99.90;;;;;;5072730;28;20190;-76
2021/12/19 12:55:17;;;;;;;15.00;9.70;;;1.30;99.90;;;;;;5072463;28;20175;-76
2021/12/19 12:57:44;;;;;;;14.40;9.43;;;1.30;99.90;;;;;;5072602;28;20186;-75
2021/12/19 13:00:21;;;;;;;15.57;9.87;;;1.50;99.90;;;;;;5071809;28;20205;-76
2021/12/19 13:02:55;;;;;;;14.87;10.90;;;1.70;99.90;;;;;;5072252;28;20683;-77
2021/12/19 13:05:20;;;;;;;15.90;9.57;;;1.70;99.90;;;;;;5071950;28;20174;-75
2021/12/19 13:07:46;;;;;;;15.00;9.87;;;1.50;99.90;;;;;;5071082;28;20181;-76
2021/12/19 13:10:11;;;;;;;12.73;8.63;;;1.60;99.90;;;;;;5069858;28;20191;-75
2021/12/19 13:12:39;;;;;;;13.63;8.40;;;1.70;99.90;;;;;;5070619;28;20194;-75
2021/12/19 13:15:09;;;;;;;14.90;8.77;;;1.60;99.90;;;;;;5068014;28;20213;-74
2021/12/19 13:17:43;;;;;;;13.90;8.63;;;1.80;99.90;;;;;;5070705;28;20589;-74
2021/12/19 13:20:16;;;;;;;13.73;8.33;;;1.70;99.90;;;;;;5070479;28;20693;-74
2021/12/19 13:22:49;;;;;;;14.30;8.87;;;1.70;99.90;;;;;;5072883;28;20296;-74
2021/12/19 13:25:19;;;;;;;13.20;7.93;;;1.60;99.90;;;;;;5091201;28;20178;-75
2021/12/19 13:27:57;;;;;;;17.23;9.30;;;1.80;99.90;;;;;;5092613;28;20170;-75
2021/12/19 13:30:31;;;;;;;13.30;8.10;;;1.80;99.90;;;;;;5094259;28;20280;-75
2021/12/19 13:33:05;;;;;;;15.97;8.77;;;1.80;99.90;;;;;;5084272;28;20185;-75
2021/12/19 13:35:33;;;;;;;12.10;8.07;;;1.80;99.90;;;;;;5073715;28;20171;-74
2021/12/19 13:38:00;;;;;;;11.53;7.70;;;1.60;99.90;;;;;;5073843;28;20166;-76
2021/12/19 13:40:30;;;;;;;13.47;8.17;;;1.70;99.90;;;;;;5077782;28;20197;-75
2021/12/19 13:43:09;;;;;;;13.17;8.43;;;1.70;99.90;;;;;;5076797;28;20210;-76
2021/12/19 13:45:47;;;;;;;11.27;7.53;;;1.70;99.90;;;;;;5074476;28;20170;-76
2021/12/19 13:48:19;;;;;;;10.23;6.57;;;1.80;99.90;;;;;;5074524;28;20553;-76
2021/12/19 13:50:50;;;;;;;12.37;8.00;;;1.70;99.90;;;;;;5073606;28;20214;-76